sensor_id;sensor_type;location;lat;lon;timestamp;P1;durP1;ratioP1;P2;durP2;ratioP2
13090;SDS011;6611;52.604;13.438;2023-05-10T00:02:01;4.60;;;3.27;;
13090;SDS011;6611;52.604;13.438;2023-05-10T00:07:02;6.70;;;3.20;;
13090;SDS011;6611;52.604;13.438;2023-05-10T00:12:05;3.63;;;3.23;;
13090;SDS011;6611;52.604;13.438;2023-05-10T00:17:07;3.80;;;3.00;;
13090;SDS011;6611;52.604;13.438;2023-05-10T00:22:09;3.53;;;3.07;;
13090;SDS011;6611;52.604;13.438;2023-05-10T00:27:12;4.27;;;3.50;;
13090;SDS011;6611;52.604;13.438;2023-05-10T00:32:14;3.50;;;3.20;;
13090;SDS011;6611;52.604;13.438;2023-05-10T00:37:16;3.70;;;3.03;;
13090;SDS011;6611;52.604;13.438;2023-05-10T00:42:19;7.73;;;3.23;;
13090;SDS011;6611;52.604;13.438;2023-05-10T00:47:21;5.50;;;3.70;;
13090;SDS011;6611;52.604;13.438;2023-05-10T00:52:23;5.27;;;3.83;;
13090;SDS011;6611;52.604;13.438;2023-05-10T00:57:27;5.27;;;3.27;;
13090;SDS011;6611;52.604;13.438;2023-05-10T01:02:29;5.67;;;3.63;;
13090;SDS011;6611;52.604;13.438;2023-05-10T01:07:31;4.17;;;3.47;;
13090;SDS011;6611;52.604;13.438;2023-05-10T01:12:34;5.87;;;3.57;;
13090;SDS011;6611;52.604;13.438;2023-05-10T01:17:38;5.50;;;3.73;;
13090;SDS011;6611;52.604;13.438;2023-05-10T01:22:46;4.00;;;3.57;;
13090;SDS011;6611;52.604;13.438;2023-05-10T01:28:06;4.30;;;3.50;;
13090;SDS011;6611;52.604;13.438;2023-05-10T01:33:17;4.87;;;3.53;;
13090;SDS011;6611;52.604;13.438;2023-05-10T01:38:22;5.40;;;3.87;;
13090;SDS011;6611;52.604;13.438;2023-05-10T01:43:32;4.63;;;3.70;;
13090;SDS011;6611;52.604;13.438;2023-05-10T01:48:41;5.00;;;4.00;;
13090;SDS011;6611;52.604;13.438;2023-05-10T01:53:48;5.63;;;3.90;;
13090;SDS011;6611;52.604;13.438;2023-05-10T01:58:52;4.83;;;3.93;;
13090;SDS011;6611;52.604;13.438;2023-05-10T02:03:57;4.47;;;3.80;;
13090;SDS011;6611;52.604;13.438;2023-05-10T02:09:00;6.53;;;4.67;;
13090;SDS011;6611;52.604;13.438;2023-05-10T02:14:02;4.73;;;3.50;;
13090;SDS011;6611;52.604;13.438;2023-05-10T02:19:08;7.17;;;3.80;;
13090;SDS011;6611;52.604;13.438;2023-05-10T02:24:11;4.00;;;3.17;;
13090;SDS011;6611;52.604;13.438;2023-05-10T02:29:14;5.43;;;3.77;;
13090;SDS011;6611;52.604;13.438;2023-05-10T02:34:18;3.97;;;3.43;;
13090;SDS011;6611;52.604;13.438;2023-05-10T02:39:21;4.50;;;3.33;;
13090;SDS011;6611;52.604;13.438;2023-05-10T02:44:24;5.40;;;3.47;;
13090;SDS011;6611;52.604;13.438;2023-05-10T02:49:32;4.13;;;3.37;;
13090;SDS011;6611;52.604;13.438;2023-05-10T02:54:36;4.47;;;3.57;;
13090;SDS011;6611;52.604;13.438;2023-05-10T02:59:42;4.53;;;3.43;;
13090;SDS011;6611;52.604;13.438;2023-05-10T03:04:46;5.43;;;3.40;;
13090;SDS011;6611;52.604;13.438;2023-05-10T03:09:49;7.27;;;3.57;;
13090;SDS011;6611;52.604;13.438;2023-05-10T03:14:52;5.37;;;3.30;;
13090;SDS011;6611;52.604;13.438;2023-05-10T03:20:02;4.43;;;3.40;;
13090;SDS011;6611;52.604;13.438;2023-05-10T03:25:08;7.47;;;3.40;;
13090;SDS011;6611;52.604;13.438;2023-05-10T03:30:12;6.73;;;2.93;;
13090;SDS011;6611;52.604;13.438;2023-05-10T03:35:16;5.53;;;3.23;;
13090;SDS011;6611;52.604;13.438;2023-05-10T03:40:17;5.83;;;3.57;;
13090;SDS011;6611;52.604;13.438;2023-05-10T03:45:19;3.37;;;2.80;;
13090;SDS011;6611;52.604;13.438;2023-05-10T03:50:22;5.97;;;3.10;;
13090;SDS011;6611;52.604;13.438;2023-05-10T03:55:24;3.60;;;2.80;;
13090;SDS011;6611;52.604;13.438;2023-05-10T04:00:25;4.20;;;3.20;;
13090;SDS011;6611;52.604;13.438;2023-05-10T04:05:28;5.17;;;3.43;;
13090;SDS011;6611;52.604;13.438;2023-05-10T04:10:30;5.33;;;3.27;;
13090;SDS011;6611;52.604;13.438;2023-05-10T04:15:32;4.30;;;3.27;;
13090;SDS011;6611;52.604;13.438;2023-05-10T04:20:35;4.30;;;3.00;;
13090;SDS011;6611;52.604;13.438;2023-05-10T04:25:37;5.17;;;3.27;;
13090;SDS011;6611;52.604;13.438;2023-05-10T04:30:38;3.60;;;3.00;;
13090;SDS011;6611;52.604;13.438;2023-05-10T04:35:41;4.47;;;3.30;;
13090;SDS011;6611;52.604;13.438;2023-05-10T04:40:44;5.47;;;3.43;;
13090;SDS011;6611;52.604;13.438;2023-05-10T04:45:46;6.03;;;2.83;;
13090;SDS011;6611;52.604;13.438;2023-05-10T04:50:49;4.00;;;2.63;;
13090;SDS011;6611;52.604;13.438;2023-05-10T04:55:51;3.83;;;2.90;;
13090;SDS011;6611;52.604;13.438;2023-05-10T05:00:52;3.40;;;2.40;;
13090;SDS011;6611;52.604;13.438;2023-05-10T05:05:55;3.40;;;2.70;;
13090;SDS011;6611;52.604;13.438;2023-05-10T05:10:57;4.40;;;2.47;;
13090;SDS011;6611;52.604;13.438;2023-05-10T05:16:00;3.13;;;2.60;;
13090;SDS011;6611;52.604;13.438;2023-05-10T05:21:03;3.43;;;2.50;;
13090;SDS011;6611;52.604;13.438;2023-05-10T05:26:15;3.67;;;2.37;;
13090;SDS011;6611;52.604;13.438;2023-05-10T05:31:16;3.93;;;2.47;;
13090;SDS011;6611;52.604;13.438;2023-05-10T05:36:20;3.97;;;2.43;;
13090;SDS011;6611;52.604;13.438;2023-05-10T05:41:22;6.10;;;2.70;;
13090;SDS011;6611;52.604;13.438;2023-05-10T05:46:24;4.53;;;2.20;;
13090;SDS011;6611;52.604;13.438;2023-05-10T05:51:27;4.30;;;2.20;;
13090;SDS011;6611;52.604;13.438;2023-05-10T05:56:29;2.47;;;2.20;;
13090;SDS011;6611;52.604;13.438;2023-05-10T06:01:30;3.70;;;2.10;;
13090;SDS011;6611;52.604;13.438;2023-05-10T06:06:33;4.87;;;2.20;;
13090;SDS011;6611;52.604;13.438;2023-05-10T06:11:35;2.57;;;1.97;;
13090;SDS011;6611;52.604;13.438;2023-05-10T06:16:37;2.53;;;1.80;;
13090;SDS011;6611;52.604;13.438;2023-05-10T06:21:40;2.90;;;1.80;;
13090;SDS011;6611;52.604;13.438;2023-05-10T06:26:42;2.43;;;2.07;;
13090;SDS011;6611;52.604;13.438;2023-05-10T06:31:43;3.23;;;1.73;;
13090;SDS011;6611;52.604;13.438;2023-05-10T06:36:47;2.57;;;1.77;;
13090;SDS011;6611;52.604;13.438;2023-05-10T06:41:48;3.30;;;1.67;;
13090;SDS011;6611;52.604;13.438;2023-05-10T06:46:50;6.47;;;1.97;;
13090;SDS011;6611;52.604;13.438;2023-05-10T06:51:54;3.33;;;1.57;;
13090;SDS011;6611;52.604;13.438;2023-05-10T06:56:56;2.67;;;1.70;;
13090;SDS011;6611;52.604;13.438;2023-05-10T07:01:58;2.57;;;1.60;;
13090;SDS011;6611;52.604;13.438;2023-05-10T07:07:01;3.00;;;1.90;;
13090;SDS011;6611;52.604;13.438;2023-05-10T07:12:03;4.20;;;1.50;;
13090;SDS011;6611;52.604;13.438;2023-05-10T07:17:05;2.60;;;1.50;;
13090;SDS011;6611;52.604;13.438;2023-05-10T07:22:08;3.30;;;1.73;;
13090;SDS011;6611;52.604;13.438;2023-05-10T07:27:10;1.90;;;1.70;;
13090;SDS011;6611;52.604;13.438;2023-05-10T07:32:12;1.63;;;1.43;;
13090;SDS011;6611;52.604;13.438;2023-05-10T07:37:15;2.47;;;1.70;;
13090;SDS011;6611;52.604;13.438;2023-05-10T07:42:17;2.03;;;1.50;;
13090;SDS011;6611;52.604;13.438;2023-05-10T07:47:19;3.27;;;1.87;;
13090;SDS011;6611;52.604;13.438;2023-05-10T07:52:22;2.90;;;1.20;;
13090;SDS011;6611;52.604;13.438;2023-05-10T07:57:23;1.43;;;1.30;;
13090;SDS011;6611;52.604;13.438;2023-05-10T08:02:25;1.87;;;1.43;;
13090;SDS011;6611;52.604;13.438;2023-05-10T08:07:28;3.13;;;2.03;;
13090;SDS011;6611;52.604;13.438;2023-05-10T08:12:30;1.87;;;1.50;;
13090;SDS011;6611;52.604;13.438;2023-05-10T08:17:32;9.57;;;2.07;;
13090;SDS011;6611;52.604;13.438;2023-05-10T08:22:35;2.40;;;1.83;;
13090;SDS011;6611;52.604;13.438;2023-05-10T08:27:37;2.90;;;1.70;;
13090;SDS011;6611;52.604;13.438;2023-05-10T08:32:39;4.40;;;1.90;;
13090;SDS011;6611;52.604;13.438;2023-05-10T08:37:42;3.57;;;1.90;;
13090;SDS011;6611;52.604;13.438;2023-05-10T08:42:45;2.07;;;1.63;;
13090;SDS011;6611;52.604;13.438;2023-05-10T08:47:52;3.33;;;1.40;;
13090;SDS011;6611;52.604;13.438;2023-05-10T08:52:59;2.43;;;1.50;;
13090;SDS011;6611;52.604;13.438;2023-05-10T08:58:11;6.53;;;1.80;;
13090;SDS011;6611;52.604;13.438;2023-05-10T09:03:20;2.60;;;1.93;;
13090;SDS011;6611;52.604;13.438;2023-05-10T09:08:25;2.73;;;1.90;;
13090;SDS011;6611;52.604;13.438;2023-05-10T09:13:27;3.17;;;1.70;;
13090;SDS011;6611;52.604;13.438;2023-05-10T09:18:30;2.17;;;1.97;;
13090;SDS011;6611;52.604;13.438;2023-05-10T09:23:33;2.67;;;1.40;;
13090;SDS011;6611;52.604;13.438;2023-05-10T09:28:35;2.07;;;1.80;;
13090;SDS011;6611;52.604;13.438;2023-05-10T09:33:52;2.93;;;1.90;;
13090;SDS011;6611;52.604;13.438;2023-05-10T09:38:55;2.30;;;1.60;;
13090;SDS011;6611;52.604;13.438;2023-05-10T09:43:58;13.40;;;2.00;;
13090;SDS011;6611;52.604;13.438;2023-05-10T09:49:00;6.07;;;1.93;;
13090;SDS011;6611;52.604;13.438;2023-05-10T09:54:12;2.40;;;1.60;;
13090;SDS011;6611;52.604;13.438;2023-05-10T09:59:15;2.53;;;1.80;;
13090;SDS011;6611;52.604;13.438;2023-05-10T10:04:17;1.57;;;1.47;;
13090;SDS011;6611;52.604;13.438;2023-05-10T10:09:20;1.80;;;1.70;;
13090;SDS011;6611;52.604;13.438;2023-05-10T10:14:22;2.00;;;1.80;;
13090;SDS011;6611;52.604;13.438;2023-05-10T10:19:23;2.07;;;1.60;;
13090;SDS011;6611;52.604;13.438;2023-05-10T10:24:27;1.80;;;1.70;;
13090;SDS011;6611;52.604;13.438;2023-05-10T10:29:30;2.80;;;1.80;;
13090;SDS011;6611;52.604;13.438;2023-05-10T10:34:36;4.60;;;1.90;;
13090;SDS011;6611;52.604;13.438;2023-05-10T10:39:41;2.83;;;1.77;;
13090;SDS011;6611;52.604;13.438;2023-05-10T10:44:43;3.30;;;1.97;;
13090;SDS011;6611;52.604;13.438;2023-05-10T10:49:48;4.63;;;1.87;;
13090;SDS011;6611;52.604;13.438;2023-05-10T10:54:53;3.50;;;1.77;;
13090;SDS011;6611;52.604;13.438;2023-05-10T11:00:18;3.43;;;1.63;;
13090;SDS011;6611;52.604;13.438;2023-05-10T11:10:51;3.00;;;1.67;;
13090;SDS011;6611;52.604;13.438;2023-05-10T11:16:14;2.03;;;1.80;;
13090;SDS011;6611;52.604;13.438;2023-05-10T11:21:17;1.67;;;1.43;;
13090;SDS011;6611;52.604;13.438;2023-05-10T11:26:20;2.57;;;1.63;;
13090;SDS011;6611;52.604;13.438;2023-05-10T11:31:25;1.93;;;1.67;;
13090;SDS011;6611;52.604;13.438;2023-05-10T11:36:27;2.70;;;1.93;;
13090;SDS011;6611;52.604;13.438;2023-05-10T11:41:32;2.83;;;1.63;;
13090;SDS011;6611;52.604;13.438;2023-05-10T11:46:34;7.63;;;1.93;;
13090;SDS011;6611;52.604;13.438;2023-05-10T11:51:37;10.37;;;1.80;;
13090;SDS011;6611;52.604;13.438;2023-05-10T11:56:40;3.53;;;2.20;;
13090;SDS011;6611;52.604;13.438;2023-05-10T12:01:42;4.57;;;1.80;;
13090;SDS011;6611;52.604;13.438;2023-05-10T12:06:44;3.43;;;1.83;;
13090;SDS011;6611;52.604;13.438;2023-05-10T12:11:47;5.00;;;2.03;;
13090;SDS011;6611;52.604;13.438;2023-05-10T12:16:49;2.47;;;1.90;;
13090;SDS011;6611;52.604;13.438;2023-05-10T12:21:51;3.17;;;1.77;;
13090;SDS011;6611;52.604;13.438;2023-05-10T12:26:54;2.50;;;1.80;;
13090;SDS011;6611;52.604;13.438;2023-05-10T12:31:56;3.40;;;1.73;;
13090;SDS011;6611;52.604;13.438;2023-05-10T12:36:59;3.47;;;1.57;;
13090;SDS011;6611;52.604;13.438;2023-05-10T12:42:03;6.72;;;1.80;;
13090;SDS011;6611;52.604;13.438;2023-05-10T12:47:05;10.23;;;1.90;;
13090;SDS011;6611;52.604;13.438;2023-05-10T12:52:06;3.53;;;1.70;;
13090;SDS011;6611;52.604;13.438;2023-05-10T12:57:09;2.77;;;1.73;;
13090;SDS011;6611;52.604;13.438;2023-05-10T13:02:11;3.63;;;1.70;;
13090;SDS011;6611;52.604;13.438;2023-05-10T13:07:14;3.83;;;1.50;;
13090;SDS011;6611;52.604;13.438;2023-05-10T13:12:17;1.70;;;1.60;;
13090;SDS011;6611;52.604;13.438;2023-05-10T13:17:19;2.00;;;1.80;;
13090;SDS011;6611;52.604;13.438;2023-05-10T13:22:20;2.33;;;1.37;;
13090;SDS011;6611;52.604;13.438;2023-05-10T13:27:24;2.50;;;1.30;;
13090;SDS011;6611;52.604;13.438;2023-05-10T13:32:25;2.17;;;1.50;;
13090;SDS011;6611;52.604;13.438;2023-05-10T13:37:27;3.50;;;1.60;;
13090;SDS011;6611;52.604;13.438;2023-05-10T13:42:30;2.33;;;1.70;;
13090;SDS011;6611;52.604;13.438;2023-05-10T13:47:33;3.33;;;1.53;;
13090;SDS011;6611;52.604;13.438;2023-05-10T13:52:35;1.40;;;1.30;;
13090;SDS011;6611;52.604;13.438;2023-05-10T13:57:38;1.73;;;1.27;;
13090;SDS011;6611;52.604;13.438;2023-05-10T14:02:40;1.73;;;1.63;;
13090;SDS011;6611;52.604;13.438;2023-05-10T14:07:42;2.10;;;1.47;;
13090;SDS011;6611;52.604;13.438;2023-05-10T14:12:45;2.13;;;1.27;;
13090;SDS011;6611;52.604;13.438;2023-05-10T14:17:47;2.40;;;1.67;;
13090;SDS011;6611;52.604;13.438;2023-05-10T14:22:48;5.57;;;1.87;;
13090;SDS011;6611;52.604;13.438;2023-05-10T14:27:51;15.47;;;2.23;;
13090;SDS011;6611;52.604;13.438;2023-05-10T14:32:54;4.93;;;1.60;;
13090;SDS011;6611;52.604;13.438;2023-05-10T14:37:58;2.40;;;1.60;;
13090;SDS011;6611;52.604;13.438;2023-05-10T14:43:01;3.00;;;1.57;;
13090;SDS011;6611;52.604;13.438;2023-05-10T14:48:03;2.07;;;1.63;;
13090;SDS011;6611;52.604;13.438;2023-05-10T14:53:05;1.63;;;1.43;;
13090;SDS011;6611;52.604;13.438;2023-05-10T14:58:08;1.83;;;1.47;;
13090;SDS011;6611;52.604;13.438;2023-05-10T15:03:10;1.53;;;1.30;;
13090;SDS011;6611;52.604;13.438;2023-05-10T15:08:12;1.57;;;1.37;;
13090;SDS011;6611;52.604;13.438;2023-05-10T15:13:15;2.13;;;1.40;;
13090;SDS011;6611;52.604;13.438;2023-05-10T15:18:16;3.43;;;1.33;;
13090;SDS011;6611;52.604;13.438;2023-05-10T15:23:18;2.60;;;1.20;;
13090;SDS011;6611;52.604;13.438;2023-05-10T15:28:21;1.60;;;1.50;;
13090;SDS011;6611;52.604;13.438;2023-05-10T15:33:23;2.40;;;1.30;;
13090;SDS011;6611;52.604;13.438;2023-05-10T15:38:25;1.40;;;1.30;;
13090;SDS011;6611;52.604;13.438;2023-05-10T15:43:28;1.47;;;1.17;;
13090;SDS011;6611;52.604;13.438;2023-05-10T15:48:29;2.90;;;1.60;;
13090;SDS011;6611;52.604;13.438;2023-05-10T15:53:31;1.77;;;1.40;;
13090;SDS011;6611;52.604;13.438;2023-05-10T15:58:34;1.67;;;1.57;;
13090;SDS011;6611;52.604;13.438;2023-05-10T16:03:36;3.03;;;1.80;;
13090;SDS011;6611;52.604;13.438;2023-05-10T16:08:37;2.27;;;1.30;;
13090;SDS011;6611;52.604;13.438;2023-05-10T16:13:40;4.13;;;1.60;;
13090;SDS011;6611;52.604;13.438;2023-05-10T16:18:42;3.97;;;1.83;;
13090;SDS011;6611;52.604;13.438;2023-05-10T16:23:44;1.70;;;1.60;;
13090;SDS011;6611;52.604;13.438;2023-05-10T16:28:47;2.63;;;1.67;;
13090;SDS011;6611;52.604;13.438;2023-05-10T16:33:49;3.30;;;1.73;;
13090;SDS011;6611;52.604;13.438;2023-05-10T16:38:51;2.03;;;1.60;;
13090;SDS011;6611;52.604;13.438;2023-05-10T16:43:54;3.57;;;1.40;;
13090;SDS011;6611;52.604;13.438;2023-05-10T16:48:56;4.13;;;1.70;;
13090;SDS011;6611;52.604;13.438;2023-05-10T16:53:58;1.70;;;1.40;;
13090;SDS011;6611;52.604;13.438;2023-05-10T16:59:01;1.87;;;1.57;;
13090;SDS011;6611;52.604;13.438;2023-05-10T17:04:03;2.20;;;2.00;;
13090;SDS011;6611;52.604;13.438;2023-05-10T17:09:05;2.90;;;2.70;;
13090;SDS011;6611;52.604;13.438;2023-05-10T17:14:08;3.50;;;2.60;;
13090;SDS011;6611;52.604;13.438;2023-05-10T17:19:10;2.83;;;2.60;;
13090;SDS011;6611;52.604;13.438;2023-05-10T17:24:12;3.60;;;2.90;;
13090;SDS011;6611;52.604;13.438;2023-05-10T17:29:15;5.80;;;2.97;;
13090;SDS011;6611;52.604;13.438;2023-05-10T17:34:16;3.40;;;3.10;;
13090;SDS011;6611;52.604;13.438;2023-05-10T17:39:18;3.43;;;2.87;;
13090;SDS011;6611;52.604;13.438;2023-05-10T17:44:21;3.80;;;2.90;;
13090;SDS011;6611;52.604;13.438;2023-05-10T17:49:24;3.70;;;2.87;;
13090;SDS011;6611;52.604;13.438;2023-05-10T17:54:27;3.30;;;2.80;;
13090;SDS011;6611;52.604;13.438;2023-05-10T17:59:30;5.13;;;3.20;;
13090;SDS011;6611;52.604;13.438;2023-05-10T18:04:32;3.50;;;3.20;;
13090;SDS011;6611;52.604;13.438;2023-05-10T18:09:34;4.53;;;2.80;;
13090;SDS011;6611;52.604;13.438;2023-05-10T18:14:37;4.27;;;3.17;;
13090;SDS011;6611;52.604;13.438;2023-05-10T18:19:38;3.53;;;2.90;;
13090;SDS011;6611;52.604;13.438;2023-05-10T18:24:40;3.80;;;2.97;;
13090;SDS011;6611;52.604;13.438;2023-05-10T18:29:43;2.97;;;2.77;;
13090;SDS011;6611;52.604;13.438;2023-05-10T18:34:45;3.17;;;2.87;;
13090;SDS011;6611;52.604;13.438;2023-05-10T18:39:47;5.27;;;3.50;;
13090;SDS011;6611;52.604;13.438;2023-05-10T18:44:50;4.87;;;3.87;;
13090;SDS011;6611;52.604;13.438;2023-05-10T18:49:52;7.30;;;3.83;;
13090;SDS011;6611;52.604;13.438;2023-05-10T18:54:54;5.07;;;4.03;;
13090;SDS011;6611;52.604;13.438;2023-05-10T18:59:57;5.53;;;3.63;;
13090;SDS011;6611;52.604;13.438;2023-05-10T19:04:59;5.50;;;3.50;;
13090;SDS011;6611;52.604;13.438;2023-05-10T19:10:01;4.43;;;3.87;;
13090;SDS011;6611;52.604;13.438;2023-05-10T19:15:05;6.73;;;3.73;;
13090;SDS011;6611;52.604;13.438;2023-05-10T19:20:08;5.93;;;3.40;;
13090;SDS011;6611;52.604;13.438;2023-05-10T19:25:10;4.87;;;4.03;;
13090;SDS011;6611;52.604;13.438;2023-05-10T19:30:14;7.57;;;4.13;;
13090;SDS011;6611;52.604;13.438;2023-05-10T19:35:15;5.83;;;4.57;;
13090;SDS011;6611;52.604;13.438;2023-05-10T19:40:17;6.43;;;4.27;;
13090;SDS011;6611;52.604;13.438;2023-05-10T19:45:20;5.07;;;4.20;;
13090;SDS011;6611;52.604;13.438;2023-05-10T19:50:22;27.30;;;4.30;;
13090;SDS011;6611;52.604;13.438;2023-05-10T19:55:24;5.17;;;4.27;;
13090;SDS011;6611;52.604;13.438;2023-05-10T20:00:29;6.37;;;4.40;;
13090;SDS011;6611;52.604;13.438;2023-05-10T20:05:31;5.63;;;4.33;;
13090;SDS011;6611;52.604;13.438;2023-05-10T20:10:32;5.00;;;3.83;;
13090;SDS011;6611;52.604;13.438;2023-05-10T20:15:35;5.00;;;3.77;;
13090;SDS011;6611;52.604;13.438;2023-05-10T20:20:37;7.10;;;4.40;;
13090;SDS011;6611;52.604;13.438;2023-05-10T20:25:39;4.97;;;4.27;;
13090;SDS011;6611;52.604;13.438;2023-05-10T20:30:43;5.00;;;4.50;;
13090;SDS011;6611;52.604;13.438;2023-05-10T20:35:44;6.10;;;4.83;;
13090;SDS011;6611;52.604;13.438;2023-05-10T20:40:46;5.43;;;4.07;;
13090;SDS011;6611;52.604;13.438;2023-05-10T20:45:49;8.27;;;4.40;;
13090;SDS011;6611;52.604;13.438;2023-05-10T20:50:53;5.27;;;4.70;;
13090;SDS011;6611;52.604;13.438;2023-05-10T20:55:54;6.23;;;4.60;;
13090;SDS011;6611;52.604;13.438;2023-05-10T21:00:57;5.47;;;4.03;;
13090;SDS011;6611;52.604;13.438;2023-05-10T21:06:01;5.60;;;4.27;;
13090;SDS011;6611;52.604;13.438;2023-05-10T21:11:02;5.37;;;4.17;;
13090;SDS011;6611;52.604;13.438;2023-05-10T21:16:06;5.63;;;4.67;;
13090;SDS011;6611;52.604;13.438;2023-05-10T21:21:08;7.47;;;5.47;;
13090;SDS011;6611;52.604;13.438;2023-05-10T21:26:09;6.20;;;5.33;;
13090;SDS011;6611;52.604;13.438;2023-05-10T21:31:12;7.90;;;5.03;;
13090;SDS011;6611;52.604;13.438;2023-05-10T21:36:15;6.10;;;5.03;;
13090;SDS011;6611;52.604;13.438;2023-05-10T21:41:16;6.77;;;5.10;;
13090;SDS011;6611;52.604;13.438;2023-05-10T21:46:19;10.27;;;7.43;;
13090;SDS011;6611;52.604;13.438;2023-05-10T21:51:21;32.93;;;19.37;;
13090;SDS011;6611;52.604;13.438;2023-05-10T21:56:23;29.47;;;16.67;;
13090;SDS011;6611;52.604;13.438;2023-05-10T22:01:26;15.30;;;9.97;;
13090;SDS011;6611;52.604;13.438;2023-05-10T22:06:27;15.17;;;8.63;;
13090;SDS011;6611;52.604;13.438;2023-05-10T22:11:29;15.43;;;9.93;;
13090;SDS011;6611;52.604;13.438;2023-05-10T22:16:32;19.73;;;12.10;;
13090;SDS011;6611;52.604;13.438;2023-05-10T22:21:34;12.90;;;9.10;;
13090;SDS011;6611;52.604;13.438;2023-05-10T22:26:36;13.27;;;9.97;;
13090;SDS011;6611;52.604;13.438;2023-05-10T22:31:39;14.40;;;10.47;;
13090;SDS011;6611;52.604;13.438;2023-05-10T22:36:41;18.10;;;9.57;;
13090;SDS011;6611;52.604;13.438;2023-05-10T22:41:43;13.87;;;8.80;;
13090;SDS011;6611;52.604;13.438;2023-05-10T22:46:46;12.77;;;9.07;;
13090;SDS011;6611;52.604;13.438;2023-05-10T22:51:48;12.47;;;8.53;;
13090;SDS011;6611;52.604;13.438;2023-05-10T22:56:50;10.33;;;8.00;;
13090;SDS011;6611;52.604;13.438;2023-05-10T23:01:53;12.73;;;8.07;;
13090;SDS011;6611;52.604;13.438;2023-05-10T23:06:55;13.23;;;8.93;;
13090;SDS011;6611;52.604;13.438;2023-05-10T23:11:56;13.03;;;8.40;;
13090;SDS011;6611;52.604;13.438;2023-05-10T23:16:59;16.43;;;8.50;;
13090;SDS011;6611;52.604;13.438;2023-05-10T23:22:01;11.40;;;8.00;;
13090;SDS011;6611;52.604;13.438;2023-05-10T23:27:03;12.13;;;7.30;;
13090;SDS011;6611;52.604;13.438;2023-05-10T23:32:06;9.97;;;7.00;;
13090;SDS011;6611;52.604;13.438;2023-05-10T23:37:07;10.77;;;7.30;;
13090;SDS011;6611;52.604;13.438;2023-05-10T23:42:09;14.30;;;7.97;;
13090;SDS011;6611;52.604;13.438;2023-05-10T23:47:12;10.37;;;7.23;;
13090;SDS011;6611;52.604;13.438;2023-05-10T23:52:14;11.03;;;6.47;;
13090;SDS011;6611;52.604;13.438;2023-05-10T23:57:16;9.83;;;6.77;;
